Time;durP1;ratioP1;P1;durP2;ratioP2;P2;SDS_P1;SDS_P2;PMS_P1;PMS_P2;Temp;Humidity;BMP_temperature;BMP_pressure;BME280_temperature;BME280_humidity;BME280_pressure;Samples;Min_cycle;Max_cycle;Signal;HPM_P1;HPM_P2
2024/02/06 00:02:26;;;;;;;;;;;;;;;;;;;;;
2024/02/06 00:04:55;;;;;;;3.95;1.55;;;;;;;13.21;35.32;99462.47;6201232;23;20062;-96
2024/02/06 00:07:23;;;;;;;5.82;1.70;;;;;;;13.27;35.29;99482.97;6171394;23;20070;-96
2024/02/06 00:09:49;;;;;;;2.92;1.60;;;;;;;13.35;35.29;99501.31;6170976;23;20001;-96
2024/02/06 00:12:25;;;;;;;3.38;1.67;;;;;;;13.22;35.22;99494.63;6148472;23;20004;-96
2024/02/06 00:15:01;;;;;;;3.17;1.60;;;;;;;13.27;35.36;99502.69;6149463;23;20012;-96
2024/02/06 00:17:29;;;;;;;3.65;1.50;;;;;;;13.28;35.26;99500.78;6173894;23;20060;-96
2024/02/06 00:20:00;;;;;;;3.75;1.60;;;;;;;13.24;35.21;99505.97;6152524;23;20004;-96
2024/02/06 00:26:18;;;;;;;;;;;;;;;;;;;;;
2024/02/06 00:28:46;;;;;;;2.40;1.45;;;;;;;13.34;35.17;99513.22;6176706;23;20031;-96
2024/02/06 00:31:17;;;;;;;5.72;1.77;;;;;;;13.17;35.28;99485.75;6150713;23;20031;-96
2024/02/06 00:36:49;;;;;;;8.23;1.95;;;;;;;12.97;35.35;99479.44;6191203;22;20056;-96
2024/02/06 00:39:16;;;;;;;4.78;1.63;;;;;;;13.05;35.52;99496.91;6137371;23;20013;-96
2024/02/06 00:41:44;;;;;;;5.53;1.70;;;;;;;12.98;35.99;99505.34;6136861;23;20009;-96
2024/02/06 00:44:13;;;;;;;7.32;1.65;;;;;;;13.00;35.54;99505.88;6140620;23;20005;-96
2024/02/06 00:46:41;;;;;;;4.18;1.80;;;;;;;12.96;35.44;99507.53;6143517;23;19997;-96
2024/02/06 00:49:10;;;;;;;4.47;1.33;;;;;;;12.98;35.49;99505.34;6143456;23;20001;-96
2024/02/06 00:51:35;;;;;;;4.60;1.95;;;;;;;13.03;35.71;99520.72;6144933;23;19997;-96
2024/02/06 00:54:01;;;;;;;3.28;1.50;;;;;;;12.92;35.80;99514.56;6144050;23;20088;-96
2024/02/06 00:56:27;;;;;;;3.83;1.50;;;;;;;13.02;35.69;99529.94;6168411;23;20017;-96
2024/02/06 00:58:53;;;;;;;3.65;1.80;;;;;;;12.92;35.85;99514.56;6144095;23;20059;-96
2024/02/06 01:01:19;;;;;;;3.85;1.35;;;;;;;13.08;35.75;99532.31;6144764;23;20017;-96
2024/02/06 01:24:28;;;;;;;2.80;1.42;;;;;;;12.94;35.99;99469.97;6223055;22;20076;-96
2024/02/06 01:26:56;;;;;;;4.85;1.48;;;;;;;12.96;35.99;99472.38;6149589;23;20106;-96
2024/02/06 01:29:25;;;;;;;5.30;1.67;;;;;;;13.01;36.00;99474.25;6152223;23;20004;-96
2024/02/06 01:32:04;;;;;;;;;;;;;;;;;;;;;
2024/02/06 01:34:32;;;;;;;3.92;1.40;;;;;;;13.06;35.61;99488.53;6188337;23;19997;-96
2024/02/06 01:37:01;;;;;;;5.30;1.83;;;;;;;12.89;35.58;99475.41;6184900;23;19996;-96
2024/02/06 01:39:37;;;;;;;4.15;1.58;;;;;;;12.93;35.58;99473.78;6232007;23;20027;-96
2024/02/06 01:42:09;;;;;;;3.72;1.73;;;;;;;12.95;35.39;99465.38;6207609;23;20044;-96
2024/02/06 01:44:50;;;;;;;;;;;;;;;13.01;35.47;99491.28;6137110;23;20006;-96
2024/02/06 01:47:22;;;;;;;4.65;2.00;;;;;;;12.86;35.18;99470.56;6159611;23;19904;-96
2024/02/06 01:50:03;;;;;;;2.70;1.60;;;;;;;12.92;35.10;99476.75;6207346;23;19987;-96
2024/02/06 01:52:53;;;;;;;4.93;2.20;;;;;;;12.80;35.07;99473.59;6092241;23;19998;-96
2024/02/06 01:55:24;;;;;;;3.35;1.55;;;;;;;12.79;35.12;99477.38;6142845;23;20017;-96
2024/02/06 01:57:54;;;;;;;3.80;2.00;;;;;;;12.75;35.09;99474.44;6070287;23;20065;-96
2024/02/06 02:00:34;;;;;;;4.70;2.33;;;;;;;12.96;35.06;99501.31;6094090;23;20002;-96
2024/02/06 02:03:00;;;;;;;4.40;2.17;;;;;;;12.85;35.03;99479.78;6068483;23;20456;-96
2024/02/06 02:11:30;;;;;;;6.10;2.40;;;;;;;12.78;35.01;99492.78;6224232;22;20021;-96
2024/02/06 02:13:56;;;;;;;3.15;1.85;;;;;;;12.74;35.08;99487.13;6151668;23;20016;-96
2024/02/06 02:16:23;;;;;;;4.00;2.25;;;;;;;12.81;35.00;99492.22;6151026;23;20007;-96
2024/02/06 02:18:49;;;;;;;5.38;2.22;;;;;;;12.83;35.03;99502.75;6149772;23;20400;-96
2024/02/06 02:35:17;;;;;;;5.97;2.15;;;;;;;12.78;35.68;99503.56;6225442;22;20035;-96
2024/02/06 02:37:43;;;;;;;5.63;2.35;;;;;;;12.83;35.68;99505.47;6169823;23;20447;-96
2024/02/06 02:40:09;;;;;;;6.55;2.00;;;;;;;12.83;36.08;99518.97;6144483;23;20008;-96
2024/02/06 02:42:35;;;;;;;5.13;2.15;;;;;;;12.85;35.75;99514.91;6144972;23;20015;-96
2024/02/06 02:45:02;;;;;;;6.38;1.90;;;;;;;12.83;36.05;99516.28;6144837;23;20344;-96
2024/02/06 02:47:27;;;;;;;4.70;1.80;;;;;;;12.83;36.17;99525.19;6144325;23;20040;-96
2024/02/06 02:49:53;;;;;;;9.00;2.03;;;;;;;12.78;35.93;99505.47;6145062;23;20000;-96
2024/02/06 02:52:19;;;;;;;5.40;2.20;;;;;;;12.69;35.92;99516.06;6144922;23;20075;-96
2024/02/06 02:54:45;;;;;;;4.45;2.53;;;;;;;12.77;36.30;99520.09;6144734;23;20001;-96
2024/02/06 02:57:12;;;;;;;2.50;1.55;;;;;;;12.65;36.51;99515.00;6168475;23;20004;-96
2024/02/06 02:59:38;;;;;;;7.03;2.20;;;;;;;12.66;36.41;99522.84;6143961;23;19996;-96
2024/02/06 03:02:04;;;;;;;4.25;2.05;;;;;;;12.67;36.60;99523.66;6144489;23;20032;-96
2024/02/06 03:04:33;;;;;;;6.32;2.17;;;;;;;12.74;36.68;99543.03;6194437;23;20007;-96
2024/02/06 03:06:59;;;;;;;4.53;2.15;;;;;;;12.61;36.75;99535.56;6169439;23;20415;-96
2024/02/06 03:09:27;;;;;;;4.70;2.28;;;;;;;12.61;36.84;99533.66;6143289;23;20048;-96
2024/02/06 03:11:53;;;;;;;4.82;2.03;;;;;;;12.58;36.65;99536.94;6145317;23;20003;-96
2024/02/06 03:30:02;;;;;;;3.75;2.03;;;;;;;12.31;37.43;99543.53;6237400;22;20028;-96
2024/02/06 03:32:31;;;;;;;3.63;2.05;;;;;;;12.46;37.17;99566.97;6157891;23;20012;-96
2024/02/06 03:34:57;;;;;;;5.70;2.35;;;;;;;12.36;37.51;99571.59;6151161;23;20000;-96
2024/02/06 03:37:25;;;;;;;4.20;2.05;;;;;;;12.28;36.55;99548.66;6152137;23;19992;-96
2024/02/06 03:39:57;;;;;;;4.28;2.05;;;;;;;12.27;36.44;99558.66;6178531;23;20011;-96
2024/02/06 03:42:28;;;;;;;5.70;1.92;;;;;;;12.31;37.07;99562.41;6154532;23;20024;-96
2024/02/06 03:44:56;;;;;;;6.97;5.38;;;;;;;12.21;36.98;99557.06;6155274;23;20404;-96
2024/02/06 03:47:33;;;;;;;4.95;2.55;;;;;;;12.08;36.87;99546.84;6153489;23;20411;-96
2024/02/06 03:50:06;;;;;;;8.25;2.08;;;;;;;12.16;36.62;99562.47;6151086;23;20000;-96
2024/02/06 03:52:51;;;;;;;4.38;2.28;;;;;;;12.04;36.70;99546.56;6178197;23;20001;-96
2024/02/06 03:55:22;;;;;;;7.32;2.30;;;;;;;11.99;37.18;99551.97;6156619;23;20012;-96
2024/02/06 03:57:53;;;;;;;6.97;2.40;;;;;;;12.01;36.76;99559.81;6153764;23;20087;-96
2024/02/06 04:00:41;;;;;;;4.80;2.30;;;;;;;12.13;37.00;99581.91;6118104;23;20057;-96
2024/02/06 04:03:09;;;;;;;5.82;2.00;;;;;;;11.93;36.53;99558.44;6123516;23;20014;-96
2024/02/06 04:05:40;;;;;;;3.95;2.08;;;;;;;11.92;36.70;99563.06;6141406;23;19997;-96
2024/02/06 04:08:11;;;;;;;5.70;2.35;;;;;;;12.05;36.38;99582.47;6144244;23;19997;-96
2024/02/06 04:10:39;;;;;;;5.90;2.00;;;;;;;11.87;36.80;99563.03;6120865;23;20001;-96
2024/02/06 04:13:08;;;;;;;4.70;2.00;;;;;;;11.90;37.09;99567.09;6138287;23;20001;-96
2024/02/06 04:15:35;;;;;;;5.78;2.15;;;;;;;11.77;37.15;99563.06;6139243;23;20002;-96
2024/02/06 04:18:15;;;;;;;4.10;2.17;;;;;;;11.80;37.06;99575.97;6115219;23;20005;-96
2024/02/06 04:29:21;;;;;;;7.47;2.38;;;;;;;11.66;36.66;99564.97;6189136;23;20490;-96
2024/02/06 04:31:48;;;;;;;8.25;2.97;;;;;;;11.67;37.34;99571.16;6188415;23;20013;-96
2024/02/06 04:34:13;;;;;;;4.78;2.22;;;;;;;11.72;37.03;99581.94;6137716;23;20067;-96
2024/02/06 04:36:43;;;;;;;8.35;2.45;;;;;;;11.70;37.08;99592.19;6138454;23;20004;-96
2024/02/06 04:39:10;;;;;;;4.63;2.30;;;;;;;11.68;37.23;99597.03;6139851;23;20000;-96
2024/02/06 04:41:36;;;;;;;12.30;2.38;;;;;;;11.62;36.90;99587.31;6188793;23;19993;-96
2024/02/06 04:44:02;;;;;;;6.03;2.28;;;;;;;11.67;36.88;99601.63;6141298;23;19997;-96
2024/02/06 04:46:27;;;;;;;10.77;3.25;;;;;;;11.45;37.34;99572.22;6139996;23;20386;-96
2024/02/06 04:48:53;;;;;;;5.55;2.58;;;;;;;11.45;37.51;99580.31;6116111;23;20011;-96
2024/02/06 04:51:21;;;;;;;4.97;2.30;;;;;;;11.47;37.08;99586.25;6141147;23;20064;-96
2024/02/06 04:53:47;;;;;;;7.32;3.30;;;;;;;11.58;37.05;99608.66;6140069;23;20001;-95
2024/02/06 04:56:14;;;;;;;6.82;3.58;;;;;;;11.41;37.55;99581.91;6141251;23;20008;-94
2024/02/06 04:58:43;;;;;;;14.38;3.75;;;;;;;11.45;38.22;99588.41;6191604;23;20428;-96
2024/02/06 05:01:09;;;;;;;9.93;3.90;;;;;;;11.45;37.81;99595.69;6141875;23;20008;-96
2024/02/06 05:03:34;;;;;;;8.25;3.47;;;;;;;11.39;38.16;99594.84;6116642;23;19997;-96
2024/02/06 05:06:05;;;;;;;5.82;3.35;;;;;;;11.42;38.37;99602.44;6142235;23;20028;-96
2024/02/06 05:17:26;;;;;;;17.52;4.97;;;;;;;11.10;38.95;99600.75;6228559;22;20027;-96
2024/02/06 05:19:52;;;;;;;9.32;5.03;;;;;;;11.07;38.77;99598.59;6150758;23;20008;-96
2024/02/06 05:22:20;;;;;;;6.88;3.28;;;;;;;11.09;38.81;99609.91;6147456;23;20020;-96
2024/02/06 05:24:48;;;;;;;10.70;3.72;;;;;;;11.11;38.73;99609.66;6148137;23;20052;-96
2024/02/06 05:27:14;;;;;;;9.93;3.67;;;;;;;11.17;38.49;99616.69;6145930;23;19997;-96
2024/02/06 05:29:46;;;;;;;16.50;4.20;;;;;;;11.10;38.81;99600.75;6147896;23;19981;-96
2024/02/06 05:32:15;;;;;;;8.40;3.30;;;;;;;11.16;38.40;99619.63;6151139;23;20090;-96
2024/02/06 05:34:41;;;;;;;7.53;3.65;;;;;;;11.13;38.48;99607.50;6149521;23;20005;-96
2024/02/06 05:37:07;;;;;;;10.50;3.90;;;;;;;11.17;38.89;99616.69;6147146;23;20004;-96
2024/02/06 05:39:40;;;;;;;9.27;4.45;;;;;;;11.20;38.83;99620.72;6146759;23;19997;-96
2024/02/06 05:42:06;;;;;;;8.32;4.75;;;;;;;11.31;38.30;99639.34;6149724;23;20008;-96
2024/02/06 05:44:35;;;;;;;7.78;4.05;;;;;;;11.16;38.70;99606.16;6147006;23;19997;-96
2024/02/06 05:47:08;;;;;;;11.25;5.28;;;;;;;11.10;38.57;99616.94;6151343;23;20000;-96
2024/02/06 05:49:42;;;;;;;9.68;4.45;;;;;;;11.18;38.55;99620.19;6199537;23;19996;-96
2024/02/06 05:52:07;;;;;;;13.35;4.38;;;;;;;11.26;38.76;99639.31;6148759;23;20072;-96
2024/02/06 05:54:33;;;;;;;11.57;5.05;;;;;;;11.18;38.40;99622.88;6147458;23;20409;-96
2024/02/06 06:03:25;;;;;;;14.73;5.95;;;;;;;11.11;39.62;99617.75;6026051;23;20023;-96
2024/02/06 06:05:54;;;;;;;29.38;12.93;;;;;;;11.11;39.64;99604.25;6075024;23;20005;-96
2024/02/06 06:14:30;;;;;;;12.00;3.70;;;;;;;11.12;39.96;99614.78;6229454;23;20008;-96
2024/02/06 06:16:59;;;;;;;8.93;3.67;;;;;;;11.24;38.90;99630.69;6151729;23;20004;-96
2024/02/06 06:22:42;;;;;;;19.13;5.80;;;;;;;11.45;38.39;99633.44;6230981;22;20020;-96
2024/02/06 06:25:36;;;;;;;18.98;4.80;;;;;;;11.39;38.25;99597.56;6239662;23;20036;-96
2024/02/06 06:28:07;;;;;;;20.10;10.32;;;;;;;11.44;37.93;99594.88;6174999;23;20001;-96
2024/02/06 06:30:50;;;;;;;;;;;;;;;;;;;;;
2024/02/06 06:33:18;;;;;;;13.30;4.90;;;;;;;11.78;36.37;99613.22;6124892;23;20027;-95
2024/02/06 06:35:46;;;;;;;20.25;4.72;;;;;;;11.86;36.58;99615.38;6198645;22;20455;-95
2024/02/06 06:38:18;;;;;;;13.00;4.80;;;;;;;11.93;36.02;99605.16;6174949;23;20000;-96
2024/02/06 06:40:51;;;;;;;23.75;5.13;;;;;;;12.22;36.94;99633.44;6203912;22;20035;-96
2024/02/06 06:43:41;;;;;;;12.57;4.05;;;;;;;12.14;35.03;99607.84;6087170;23;20550;-96
2024/02/06 06:52:12;;;;;;;18.88;9.10;;;;;;;12.46;35.32;99607.47;6205133;23;20029;-95
2024/02/06 06:55:18;;;;;;;;;;;;;;;;;;;;;
2024/02/06 07:00:24;;;;;;;9.48;3.55;;;;;;;12.76;33.74;99608.44;6204792;22;20013;-95
2024/02/06 07:08:31;;;;;;;8.18;2.97;;;;;;;13.37;31.59;99634.38;6237687;22;20033;-96
2024/02/06 07:18:03;;;;;;;6.30;2.90;;;;;;;13.70;31.67;99619.25;6221100;23;20068;-94
2024/02/06 07:39:58;;;;;;;13.73;5.25;;;;;;;14.47;31.06;99585.19;6222669;22;20031;-96
2024/02/06 07:42:45;;;;;;;;;;;;;;;14.73;31.01;99613.66;6153729;23;20016;-96
2024/02/06 07:45:55;;;;;;;;;;;;;;;;;;;;;
2024/02/06 07:48:39;;;;;;;5.50;2.75;;;;;;;14.87;28.66;99575.75;6201569;23;20040;-96
2024/02/06 08:05:46;;;;;;;7.70;3.13;;;;;;;15.83;27.47;99577.31;6228144;22;20068;-94
2024/02/06 08:08:24;;;;;;;;;;;;;;;;;;;;;
2024/02/06 08:10:50;;;;;;;44.35;24.05;;;;;;;16.11;27.04;99570.00;6191147;23;20056;-93
2024/02/06 08:13:18;;;;;;;65.75;32.20;;;;;;;16.13;27.27;99570.53;6188979;23;19996;-94
2024/02/06 08:15:50;;;;;;;10.57;5.22;;;;;;;16.28;26.39;99580.28;6163764;23;20011;-94
2024/02/06 08:18:19;;;;;;;6.68;2.22;;;;;;;16.59;25.93;99590.56;6163427;23;20005;-92
2024/02/06 08:20:45;;;;;;;7.93;2.80;;;;;;;16.56;26.39;99572.94;6163665;23;20016;-92
2024/02/06 08:48:23;;;;;;;7.20;2.88;;;;;;;17.86;23.89;99567.00;6224477;22;19923;-96
2024/02/06 08:58:02;;;;;;;7.00;2.20;;;;;;;18.14;21.94;99575.81;6222927;22;20025;-94
2024/02/06 09:00:28;;;;;;;5.70;1.73;;;;;;;18.32;21.81;99595.78;6195117;23;20017;-93
2024/02/06 09:03:30;;;;;;;;;;;;;;;;;;;;;
2024/02/06 09:06:02;;;;;;;7.90;1.60;;;;;;;18.48;21.27;99600.81;6086217;23;20040;-95
2024/02/06 09:12:51;;;;;;;3.50;1.80;;;;;;;18.74;21.01;99609.06;6021529;23;20552;-96
2024/02/06 09:15:39;;;;;;;6.18;1.70;;;;;;;18.83;20.38;99609.13;6019005;23;20037;-96
2024/02/06 09:18:22;;;;;;;;;;;;;;;;;;;;;
2024/02/06 09:21:23;;;;;;;;;;;;;;;;;;;;;
2024/02/06 09:24:03;;;;;;;9.13;1.95;;;;;;;18.90;20.94;99584.88;6113943;23;20044;-95
2024/02/06 09:26:31;;;;;;;4.32;1.50;;;;;;;18.94;19.98;99577.66;6077362;23;20006;-95
2024/02/06 09:28:58;;;;;;;5.00;1.30;;;;;;;19.10;20.29;99584.28;6060522;23;20034;-94
2024/02/06 09:31:28;;;;;;;6.95;1.63;;;;;;;19.16;20.19;99576.75;6058119;23;20101;-94
2024/02/06 09:33:57;;;;;;;4.25;1.50;;;;;;;19.31;19.25;99575.44;6083412;23;20076;-96
2024/02/06 09:36:23;;;;;;;4.28;1.30;;;;;;;19.24;19.11;99550.56;6080895;23;20033;-93
2024/02/06 09:39:01;;;;;;;4.95;1.20;;;;;;;19.35;19.55;99562.75;6055931;23;20033;-93
2024/02/06 09:41:27;;;;;;;7.10;1.75;;;;;;;19.43;20.13;99567.41;6080767;23;20005;-93
2024/02/06 09:43:56;;;;;;;6.90;1.67;;;;;;;19.38;18.94;99545.72;6084345;23;20002;-95
2024/02/06 10:27:15;;;;;;;6.75;1.70;;;;;;;20.08;17.08;99501.84;6226808;22;20024;-95
2024/02/06 10:51:44;;;;;;;5.35;1.50;;;;;;;20.03;17.86;99450.13;6180985;22;20365;-96
2024/02/06 10:54:19;;;;;;;5.18;1.30;;;;;;;20.06;17.50;99452.97;6188282;23;20013;-95
2024/02/06 11:57:14;;;;;;;;;;;;;;;;;;;;;
2024/02/06 12:17:02;;;;;;;6.28;1.65;;;;;;;20.47;17.65;99335.75;6206224;22;20023;-95
2024/02/06 12:38:21;;;;;;;3.08;1.10;;;;;;;20.63;16.71;99335.94;6225384;23;20027;-93
2024/02/06 12:44:00;;;;;;;4.90;1.20;;;;;;;20.39;16.20;99307.34;6020558;23;20022;-94
2024/02/06 12:46:56;;;;;;;6.10;1.30;;;;;;;20.52;16.88;99324.59;6016409;23;20002;-96
2024/02/06 12:49:44;;;;;;;2.22;1.13;;;;;;;20.42;16.27;99303.13;6115067;23;20006;-95
2024/02/06 12:52:23;;;;;;;4.20;1.20;;;;;;;20.45;17.10;99299.75;6087454;23;20002;-95
2024/02/06 12:55:15;;;;;;;5.63;1.20;;;;;;;20.59;16.99;99325.69;6064311;23;20002;-96
2024/02/06 12:57:46;;;;;;;9.35;1.52;;;;;;;20.46;17.28;99293.13;6082863;23;20057;-95
2024/02/06 13:00:15;;;;;;;4.32;1.60;;;;;;;20.39;16.80;99278.06;6079511;23;20005;-93
2024/02/06 13:03:07;;;;;;;4.93;0.98;;;;;;;20.46;17.09;99277.53;6083092;23;20006;-94
2024/02/06 13:05:46;;;;;;;;;;;;;;;;;;;;;
2024/02/06 13:09:35;;;;;;;;;;;;;;;;;;;;;
2024/02/06 13:12:10;;;;;;;3.88;1.30;;;;;;;20.57;16.92;99277.91;6036919;23;20030;-95
2024/02/06 13:17:19;;;;;;;6.22;1.92;;;;;;;20.50;17.05;99272.16;6247363;22;20020;-94
2024/02/06 13:19:47;;;;;;;5.22;1.40;;;;;;;20.58;16.82;99279.50;6208187;23;20022;-96
2024/02/06 13:23:00;;;;;;;4.25;1.48;;;;;;;20.68;16.71;99295.50;6233865;22;20004;-96
2024/02/06 13:36:55;;;;;;;7.10;2.00;;;;;;;20.46;17.34;99272.06;6222266;22;20024;-95
2024/02/06 14:02:41;;;;;;;5.78;1.65;;;;;;;20.33;16.95;99264.94;6226673;22;20107;-96
2024/02/06 14:18:06;;;;;;;5.35;2.00;;;;;;;20.09;17.17;99214.50;6229016;22;20144;-96
2024/02/06 14:20:32;;;;;;;2.65;1.30;;;;;;;20.19;17.19;99225.03;6111608;23;20008;-95
2024/02/06 14:23:12;;;;;;;9.10;1.80;;;;;;;20.10;17.39;99224.28;6093660;23;19989;-95
2024/02/06 14:25:40;;;;;;;6.22;2.05;;;;;;;20.10;17.66;99248.09;6094822;23;20088;-96
2024/02/06 14:28:06;;;;;;;3.72;1.42;;;;;;;19.99;17.62;99220.38;6090430;23;20031;-96
2024/02/06 14:30:41;;;;;;;7.43;1.80;;;;;;;19.93;17.97;99216.25;6090279;23;20001;-95
2024/02/06 14:33:26;;;;;;;6.20;1.50;;;;;;;19.86;17.74;99211.34;6122112;23;20004;-94
2024/02/06 14:35:52;;;;;;;11.65;5.82;;;;;;;19.85;18.94;99219.84;6097504;23;20500;-96
2024/02/06 14:38:45;;;;;;;11.20;3.85;;;;;;;19.77;19.70;99222.31;6098565;23;20013;-96
2024/02/06 14:41:41;;;;;;;5.07;2.28;;;;;;;19.77;18.81;99233.22;6189342;23;20021;-96
2024/02/06 14:44:07;;;;;;;7.57;3.47;;;;;;;19.71;19.65;99237.31;6172444;23;20016;-95
2024/02/06 14:46:34;;;;;;;7.55;3.08;;;;;;;19.52;21.13;99226.00;6146645;23;20011;-92
2024/02/06 14:49:10;;;;;;;12.60;2.85;;;;;;;19.46;20.67;99228.13;6171188;23;20423;-94
2024/02/06 14:51:45;;;;;;;16.00;3.45;;;;;;;19.27;20.96;99217.66;6153349;23;19993;-95
2024/02/06 14:54:22;;;;;;;21.95;3.60;;;;;;;19.11;21.57;99219.34;6148760;23;20007;-95
2024/02/06 15:08:32;;;;;;;10.98;3.72;;;;;;;18.26;22.80;99198.28;6218564;22;20083;-95
2024/02/06 15:14:37;;;;;;;;;;;;;;;;;;;;;
2024/02/06 15:49:16;;;;;;;15.10;5.18;;;;;;;17.04;26.04;99207.16;6228544;22;20008;-95
2024/02/06 15:57:43;;;;;;;12.40;4.40;;;;;;;16.77;25.33;99205.44;6205523;23;20044;-96
2024/02/06 16:55:07;;;;;;;28.75;10.23;;;;;;;14.54;31.66;99176.50;6190868;22;20120;-96
2024/02/06 16:57:59;;;;;;;;;;;;;;;;;;;;;
2024/02/06 17:00:52;;;;;;;18.10;9.50;;;;;;;14.39;30.39;99169.47;6155453;23;20013;-96
2024/02/06 17:03:22;;;;;;;35.13;9.93;;;;;;;14.41;29.98;99174.59;6124060;22;19996;-96
2024/02/06 17:06:09;;;;;;;21.63;9.65;;;;;;;14.36;30.40;99170.09;6169738;23;20064;-96
2024/02/06 17:08:43;;;;;;;21.90;8.45;;;;;;;14.38;29.53;99183.31;6173313;23;20005;-96
2024/02/06 17:12:07;;;;;;;16.05;8.27;;;;;;;14.45;29.32;99205.41;6151423;23;19996;-96
2024/02/06 17:14:54;;;;;;;;;;;;;;;;;;;;;
2024/02/06 17:17:31;;;;;;;32.70;11.40;;;;;;;14.23;31.80;99187.09;6204284;23;20008;-96
2024/02/06 17:20:22;;;;;;;30.15;10.98;;;;;;;14.13;31.90;99188.88;6174866;23;20004;-96
2024/02/06 17:22:57;;;;;;;33.10;11.63;;;;;;;14.06;32.33;99198.47;6196109;23;20040;-96
2024/02/06 17:25:22;;;;;;;36.80;11.57;;;;;;;13.93;32.63;99200.84;6197134;23;20001;-96
2024/02/06 17:27:48;;;;;;;46.10;12.10;;;;;;;13.86;33.07;99199.59;6136346;23;20033;-96
2024/02/06 17:30:17;;;;;;;36.25;12.45;;;;;;;13.72;33.29;99197.63;6140261;23;19997;-96
2024/02/06 17:32:46;;;;;;;51.47;15.00;;;;;;;13.65;34.28;99208.00;6144358;23;19993;-96
2024/02/06 17:35:22;;;;;;;67.53;16.45;;;;;;;13.62;35.04;99216.72;6174604;23;20000;-96
2024/02/06 17:37:52;;;;;;;39.05;13.35;;;;;;;13.42;34.72;99204.28;6144369;23;20440;-96
2024/02/06 17:40:21;;;;;;;46.08;14.10;;;;;;;13.38;35.50;99210.56;6167451;23;19985;-96
2024/02/06 17:42:48;;;;;;;36.58;13.70;;;;;;;13.19;35.19;99194.28;6168466;23;20009;-96
2024/02/06 17:45:14;;;;;;;31.77;13.00;;;;;;;13.23;34.46;99219.66;6168837;23;20005;-96
2024/02/06 17:47:42;;;;;;;49.17;22.27;;;;;;;13.14;33.88;99203.28;6171006;23;20005;-96
2024/02/06 17:50:12;;;;;;;32.03;11.55;;;;;;;13.13;34.21;99213.25;6168495;23;20005;-96
2024/02/06 17:52:37;;;;;;;34.08;12.00;;;;;;;13.05;34.50;99205.00;6171195;23;20016;-96
2024/02/06 17:55:05;;;;;;;26.77;12.52;;;;;;;13.00;34.49;99196.97;6169679;23;20049;-96
2024/02/06 17:57:31;;;;;;;41.40;16.55;;;;;;;12.95;35.08;99200.53;6143057;23;20008;-96
2024/02/06 18:00:02;;;;;;;38.90;14.88;;;;;;;13.05;35.17;99216.63;6140768;23;20068;-96
2024/02/06 18:02:29;;;;;;;44.22;16.60;;;;;;;12.88;35.76;99206.25;6170766;23;20009;-96
2024/02/06 18:04:54;;;;;;;36.80;15.25;;;;;;;12.91;36.05;99215.72;6141943;23;20036;-96
2024/02/06 18:07:23;;;;;;;43.97;17.17;;;;;;;12.93;36.95;99229.75;6141327;23;19985;-96
2024/02/06 18:09:49;;;;;;;41.78;15.68;;;;;;;12.76;36.40;99199.66;6142558;23;20317;-96
2024/02/06 18:12:21;;;;;;;50.17;17.77;;;;;;;12.73;37.09;99211.84;6141785;23;20036;-96
2024/02/06 18:14:52;;;;;;;53.33;21.10;;;;;;;12.58;37.69;99206.63;6151667;23;20067;-96
2024/02/06 18:17:18;;;;;;;53.38;20.77;;;;;;;12.46;37.42;99196.97;6143988;23;20005;-96
2024/02/06 18:19:45;;;;;;;40.95;17.50;;;;;;;12.46;38.14;99226.69;6166615;23;20504;-96
2024/02/06 18:22:15;;;;;;;41.42;13.05;;;;;;;12.31;37.56;99216.84;6140022;23;20009;-96
2024/02/06 18:24:43;;;;;;;34.55;13.48;;;;;;;12.30;37.90;99217.09;6173706;23;20012;-96
2024/02/06 18:27:11;;;;;;;62.65;15.05;;;;;;;12.24;38.23;99229.03;6174092;23;20474;-96
2024/02/06 18:32:53;;;;;;;62.17;21.27;;;;;;;12.08;38.96;99215.69;6105546;23;20473;-95
2024/02/06 18:35:27;;;;;;;36.38;12.35;;;;;;;12.05;39.40;99237.03;6149845;23;20004;-96
2024/02/06 18:37:56;;;;;;;39.67;12.75;;;;;;;11.89;38.76;99225.53;6151123;23;20351;-96
2024/02/06 18:40:23;;;;;;;34.88;13.38;;;;;;;11.69;38.62;99207.56;6152242;23;20431;-96
2024/02/06 18:42:51;;;;;;;35.80;13.68;;;;;;;11.71;38.94;99221.59;6169880;23;20040;-96
2024/02/06 18:45:18;;;;;;;40.47;14.70;;;;;;;11.70;39.25;99233.44;6167489;23;20031;-96
2024/02/06 18:47:47;;;;;;;32.92;14.05;;;;;;;11.66;39.67;99232.38;6167081;23;20064;-96
2024/02/06 18:50:12;;;;;;;38.78;15.45;;;;;;;11.63;39.68;99227.56;6142713;23;20000;-96
2024/02/06 18:52:38;;;;;;;39.67;18.48;;;;;;;11.61;39.57;99229.72;6143334;23;20024;-96
2024/02/06 18:58:15;;;;;;;37.97;15.82;;;;;;;11.56;38.23;99224.34;6245898;22;20040;-96
2024/02/06 19:00:41;;;;;;;27.75;14.20;;;;;;;11.57;37.40;99225.97;6172785;23;20019;-96
2024/02/06 19:03:07;;;;;;;31.08;13.98;;;;;;;11.65;36.98;99236.19;6147111;23;20428;-96
2024/02/06 19:05:34;;;;;;;37.72;12.73;;;;;;;11.49;39.29;99230.06;6171715;23;20020;-96
2024/02/06 19:08:07;;;;;;;63.60;14.63;;;;;;;11.16;39.79;99215.38;6172717;23;20359;-96
2024/02/06 19:10:36;;;;;;;37.22;11.30;;;;;;;11.12;39.81;99221.34;6147650;23;20023;-96
2024/02/06 19:13:04;;;;;;;29.80;11.35;;;;;;;11.06;39.98;99230.53;6148239;23;20427;-96
2024/02/06 19:15:31;;;;;;;30.88;12.18;;;;;;;10.99;40.16;99232.69;6171848;23;20001;-96
2024/02/06 19:17:56;;;;;;;24.77;11.52;;;;;;;10.89;39.96;99227.34;6172214;23;20407;-96
2024/02/06 19:20:25;;;;;;;26.88;10.63;;;;;;;10.94;40.44;99230.03;6170533;23;20090;-96
2024/02/06 19:22:50;;;;;;;23.77;8.73;;;;;;;10.92;39.70;99221.41;6172239;23;20027;-96
2024/02/06 19:25:17;;;;;;;23.95;8.50;;;;;;;10.81;39.34;99225.19;6170670;23;20087;-96
2024/02/06 19:27:43;;;;;;;22.02;9.05;;;;;;;10.76;39.70;99206.38;6170724;23;20000;-96
2024/02/06 19:30:11;;;;;;;25.67;9.50;;;;;;;10.80;40.00;99215.53;6146285;23;20047;-96
2024/02/06 19:32:37;;;;;;;20.70;9.38;;;;;;;10.79;40.45;99222.81;6146486;23;19996;-96
2024/02/06 19:35:05;;;;;;;26.23;10.65;;;;;;;10.74;40.77;99219.31;6170023;23;20011;-95
2024/02/06 19:37:33;;;;;;;29.13;10.15;;;;;;;10.71;41.42;99228.75;6145290;23;20020;-96
2024/02/06 19:39:59;;;;;;;28.48;10.38;;;;;;;10.65;41.55;99219.06;6171572;23;20375;-96
2024/02/06 19:42:24;;;;;;;23.85;10.60;;;;;;;10.58;41.81;99215.84;6146644;23;20008;-96
2024/02/06 19:44:50;;;;;;;20.65;8.75;;;;;;;10.49;40.92;99218.28;6146909;23;20080;-96
2024/02/06 19:47:16;;;;;;;24.67;10.07;;;;;;;10.36;41.22;99213.47;6145562;23;20482;-96
2024/02/06 19:49:42;;;;;;;25.33;9.95;;;;;;;10.39;41.11;99226.38;6146856;23;20000;-96
2024/02/06 19:52:08;;;;;;;23.63;10.23;;;;;;;10.33;41.28;99225.53;6171852;23;19997;-96
2024/02/06 19:54:37;;;;;;;26.55;11.30;;;;;;;10.25;41.30;99237.66;6146852;23;20003;-96
2024/02/06 19:57:03;;;;;;;31.05;11.45;;;;;;;10.34;41.17;99250.59;6140814;23;20024;-96
2024/02/06 19:59:29;;;;;;;19.17;10.95;;;;;;;10.29;41.63;99225.31;6166312;23;20004;-96
2024/02/06 20:01:55;;;;;;;21.30;8.60;;;;;;;10.19;41.91;99237.91;6140609;23;19997;-96
2024/02/06 20:04:21;;;;;;;21.45;10.25;;;;;;;10.16;41.68;99246.53;6164531;23;20009;-96
2024/02/06 20:06:49;;;;;;;31.48;9.45;;;;;;;10.08;42.19;99232.50;6139583;23;20027;-96
2024/02/06 20:09:15;;;;;;;24.98;9.63;;;;;;;10.09;42.11;99241.41;6141385;23;19993;-96
2024/02/06 20:11:51;;;;;;;27.17;11.32;;;;;;;9.94;42.00;99227.94;6165665;23;20024;-96
2024/02/06 20:14:16;;;;;;;27.50;9.95;;;;;;;9.84;42.88;99234.13;6188495;23;20435;-96
2024/02/06 20:16:48;;;;;;;19.40;9.65;;;;;;;9.94;42.83;99263.72;6163238;23;20063;-96
2024/02/06 20:19:15;;;;;;;25.50;9.57;;;;;;;9.67;42.77;99229.78;6139448;23;20001;-95
2024/02/06 20:21:41;;;;;;;25.02;9.52;;;;;;;9.89;42.70;99261.81;6140598;23;20039;-96
2024/02/06 20:27:38;;;;;;;21.75;8.82;;;;;;;9.58;43.22;99231.38;6098510;23;20026;-96
2024/02/06 20:30:06;;;;;;;21.48;7.90;;;;;;;9.55;43.07;99236.50;6205640;23;20012;-96
2024/02/06 20:32:59;;;;;;;22.50;8.30;;;;;;;9.43;43.38;99244.78;6184024;23;19985;-96
2024/02/06 20:35:42;;;;;;;20.55;8.18;;;;;;;9.37;43.24;99246.63;6176051;23;20073;-96
2024/02/06 20:38:27;;;;;;;30.23;9.07;;;;;;;9.28;42.71;99234.78;6158936;23;20066;-96
2024/02/06 20:44:02;;;;;;;26.00;8.85;;;;;;;9.25;43.28;99246.84;6176674;23;20562;-96
2024/02/06 20:55:22;;;;;;;17.00;7.25;;;;;;;9.10;43.95;99263.72;6084112;23;20013;-96
2024/02/06 21:01:44;;;;;;;20.42;8.65;;;;;;;8.89;43.87;99243.22;6056031;23;20157;-96
2024/02/06 21:04:42;;;;;;;19.83;8.60;;;;;;;8.81;44.08;99238.31;6030625;23;20019;-96
2024/02/06 21:07:57;;;;;;;23.92;10.25;;;;;;;8.67;44.33;99232.59;6073454;23;20028;-96